Erskine, New Jersey
Current Conditions -  °F | °C
As of 4:53 PM on Saturday 20 Dec 2014 (Local Time) from KCDW Reporting Station
Overcast Overcast  
Wind Chill: 32°   Ceiling: 3000
Heat Index: 32°   Visibility: 10mi
Dew Point: 20°   Wind: 3mph
Humidity: 61%   Direction: 350°N
Pressure: 30.27"   Gusts: NA
Location:  41.1036°N, 74.2801°W
Report Text: KCDW 202153Z 35003KT 10SM OVC030 00/M07 A3027 RMK AO2 SLP258 T00001067
Loading
Personal Weather Stations






























Interactive Weather Map New forecast layout! Learn more

10-Day Weather Forecast

Advertisements
Track Severe Weather on mobile